Delray Beach, FL

8:22 AM EST on January 31, 2015 (GMT -0500)
Palm Beach International | Change Station
CLOSE
Current Station
Airport
Location: West Palm Beach,
Elevation: 20 ft
Nearby Weather Stations
Active Advisory: Coastal Hazard Statement

Elev 20 ft 26.68 °N, 80.10 °W | Updated 29 minutes ago

Partly Cloudy
Partly Cloudy
55 °F
Feels Like 55 °F
N
6
Wind Variable Wind from NW

Today
High -- | Low -- °F
--% Chance of Precip.
Yesterday
High -- | Low -- °F
Precip. -- in
7:05 AM 6:02 PM
Waxing Gibbous, 89% visible
Pressure 30.19 in
Visibility 10.0 miles
Clouds Scattered Clouds 4500 ft
Scattered Clouds 25000 ft
Dew Point 50 °F
Humidity 83%
Rainfall 0.00 in
Snow Depth Not available.
UV 0 out of 12
Pollen 8.30 out of 12
Air Quality Not available.
Flu Activity Not available.
METAR KPBI 311253Z 31005KT 10SM SCT045 SCT250 13/10 A3019 RMK AO2 SLP223 T01280100

More Conditions Fewer Conditions

Pressure 30.19 in
Visibility 10.0 miles
Clouds Scattered Clouds 4500 ft
Scattered Clouds 25000 ft
Dew Point 50 °F
Humidity 83%
Rainfall 0.00 in
Snow Depth Not available.
UV 0 out of 12
Pollen 8.30 out of 12
Air Quality Not available.
Flu Activity Not available.
METAR KPBI 311253Z 31005KT 10SM SCT045 SCT250 13/10 A3019 RMK AO2 SLP223 T01280100

More Conditions Fewer Conditions

10-Day Weather Forecast

Almanac

Astronomy

Jan. 31, 2015 Rise Set
Actual Time
Civil Twilight
Nautical Twilight
Astronomical Twilight
Moon
Length of Visible Light
Length of Day
Tomorrow will be .
, % of the Moon is Illuminated

Today's Extremes

State Highs State Lows

Community

WunderPhotos

Upload Photos

1,792,048 photos uploaded!

WunderBlogs® & News

Nearby

Air Quality

  Air Quality AQ Index Pollutant
Not available.

Snow Depth

Station Depth Elevation

Earthquake Activity

City Distance Mag. Time & Date
Minimum magnitude displayed is 2.5.

Coastal Water Temperatures

Place Temperature

Nearby Weather Stations